createdAt,value
2023-04-07T00:04:29.000Z,6.32
2023-04-07T00:09:23.000Z,6.31
2023-04-07T00:14:16.000Z,6.31
2023-04-07T00:19:10.000Z,6.39
2023-04-07T00:24:04.000Z,6.4
2023-04-07T00:28:58.000Z,6.43
2023-04-07T00:33:50.000Z,6.41
2023-04-07T00:38:43.000Z,6.42
2023-04-07T00:43:37.000Z,6.43
2023-04-07T00:48:28.000Z,6.42
2023-04-07T00:53:25.000Z,6.38
2023-04-07T00:58:12.000Z,6.43
2023-04-07T01:03:06.000Z,6.4
2023-04-07T01:08:00.000Z,6.44
2023-04-07T01:12:54.000Z,6.43
2023-04-07T01:17:48.000Z,6.48
2023-04-07T01:22:42.000Z,6.45
2023-04-07T01:27:38.000Z,6.45
2023-04-07T01:32:28.000Z,6.49
2023-04-07T01:37:21.000Z,6.51
2023-04-07T01:42:15.000Z,6.52
2023-04-07T01:47:09.000Z,6.54
2023-04-07T01:52:03.000Z,6.51
2023-04-07T01:56:57.000Z,6.55
2023-04-07T02:01:51.000Z,6.52
2023-04-07T02:06:45.000Z,6.56
2023-04-07T02:11:38.000Z,6.6
2023-04-07T02:16:29.000Z,6.6
2023-04-07T02:21:24.000Z,6.57
2023-04-07T02:26:16.000Z,6.52
2023-04-07T02:31:10.000Z,6.47
2023-04-07T02:36:04.000Z,6.5
2023-04-07T02:40:58.000Z,6.52
2023-04-07T02:45:52.000Z,6.52
2023-04-07T02:50:46.000Z,6.46
2023-04-07T02:55:41.000Z,6.48
2023-04-07T03:00:35.000Z,6.55
2023-04-07T03:05:29.000Z,6.56
2023-04-07T03:10:23.000Z,6.53
2023-04-07T03:15:17.000Z,6.55
2023-04-07T03:20:10.000Z,6.55
2023-04-07T03:25:04.000Z,6.59
2023-04-07T03:29:58.000Z,6.64
2023-04-07T03:34:52.000Z,6.62
2023-04-07T03:39:46.000Z,6.57
2023-04-07T03:44:40.000Z,6.6
2023-04-07T03:49:34.000Z,6.6
2023-04-07T03:54:28.000Z,6.6
2023-04-07T03:59:22.000Z,6.6
2023-04-07T04:04:16.000Z,6.58
2023-04-07T04:09:10.000Z,6.58
2023-04-07T04:14:04.000Z,6.55
2023-04-07T04:18:58.000Z,6.55
2023-04-07T04:23:52.000Z,6.6
2023-04-07T04:28:46.000Z,6.59
2023-04-07T04:33:40.000Z,6.63
2023-04-07T04:38:33.000Z,6.62
2023-04-07T04:43:28.000Z,6.52
2023-04-07T04:48:19.000Z,6.54
2023-04-07T04:53:12.000Z,6.6
2023-04-07T04:58:06.000Z,6.62
2023-04-07T05:03:00.000Z,6.58
2023-04-07T05:07:54.000Z,6.63
2023-04-07T05:12:49.000Z,6.66
2023-04-07T05:17:43.000Z,6.66
2023-04-07T05:22:37.000Z,6.64
2023-04-07T05:27:30.000Z,6.67
2023-04-07T05:32:26.000Z,6.7
2023-04-07T05:37:16.000Z,6.72
2023-04-07T05:42:13.000Z,6.73
2023-04-07T05:47:03.000Z,6.74
2023-04-07T05:51:57.000Z,6.79
2023-04-07T05:56:51.000Z,6.77
2023-04-07T06:01:45.000Z,6.88
2023-04-07T06:06:39.000Z,6.93
2023-04-07T06:11:32.000Z,7.03
2023-04-07T06:16:26.000Z,7.03
2023-04-07T06:21:18.000Z,6.98
2023-04-07T06:26:12.000Z,7.03
2023-04-07T06:31:06.000Z,7.08
2023-04-07T06:36:01.000Z,7
2023-04-07T06:40:55.000Z,7.12
2023-04-07T06:45:50.000Z,7.08
2023-04-07T06:50:44.000Z,7.2
2023-04-07T06:55:38.000Z,7.39
2023-04-07T07:00:32.000Z,7.39
2023-04-07T07:05:26.000Z,7.47
2023-04-07T07:10:20.000Z,7.53
2023-04-07T07:15:14.000Z,7.52
2023-04-07T07:20:08.000Z,7.62
2023-04-07T07:25:00.000Z,7.62
2023-04-07T07:29:55.000Z,7.53
2023-04-07T07:34:49.000Z,7.5
2023-04-07T07:39:43.000Z,7.45
2023-04-07T07:44:37.000Z,7.68
2023-04-07T07:49:32.000Z,7.57
2023-04-07T07:54:26.000Z,7.53
2023-04-07T07:59:21.000Z,7.68
2023-04-07T08:04:15.000Z,7.55
2023-04-07T08:09:09.000Z,7.48
2023-04-07T08:14:04.000Z,7.27
2023-04-07T08:18:57.000Z,7.3
2023-04-07T08:23:51.000Z,7.22
2023-04-07T08:28:45.000Z,7.26
2023-04-07T08:33:39.000Z,7.39
2023-04-07T08:38:36.000Z,7.38
2023-04-07T08:43:28.000Z,7.57
2023-04-07T08:48:22.000Z,7.51
2023-04-07T08:53:16.000Z,7.43
2023-04-07T08:58:11.000Z,7.51
2023-04-07T09:03:05.000Z,7.61
2023-04-07T09:07:59.000Z,7.5
2023-04-07T09:12:53.000Z,7.69
2023-04-07T09:17:48.000Z,7.81
2023-04-07T09:22:42.000Z,8.05
2023-04-07T09:27:37.000Z,7.89
2023-04-07T09:32:31.000Z,8.04
2023-04-07T09:37:26.000Z,7.99
2023-04-07T09:42:18.000Z,8.21
2023-04-07T09:47:11.000Z,7.97
2023-04-07T09:52:05.000Z,8.29
2023-04-07T09:57:00.000Z,8.98
2023-04-07T10:01:52.000Z,9.84
2023-04-07T10:06:47.000Z,9.39
2023-04-07T10:11:42.000Z,9.51
2023-04-07T10:16:37.000Z,9.82
2023-04-07T10:21:31.000Z,9.75
2023-04-07T10:26:26.000Z,9.27
2023-04-07T10:31:20.000Z,9.08
2023-04-07T10:36:14.000Z,8.96
2023-04-07T10:41:09.000Z,8.28
2023-04-07T10:46:03.000Z,8.42
2023-04-07T10:50:57.000Z,8.55
2023-04-07T10:55:51.000Z,8.82
2023-04-07T11:00:46.000Z,8.42
2023-04-07T11:05:40.000Z,8.43
2023-04-07T11:10:33.000Z,8.25
2023-04-07T11:15:28.000Z,8.77
2023-04-07T11:20:22.000Z,9.25
2023-04-07T11:25:17.000Z,9.46
2023-04-07T11:30:11.000Z,9.6
2023-04-07T11:35:05.000Z,9.23
2023-04-07T11:40:00.000Z,8.84
2023-04-07T11:44:54.000Z,8.7
2023-04-07T11:49:48.000Z,8.97
2023-04-07T11:54:42.000Z,8.99
2023-04-07T11:59:36.000Z,9.17
2023-04-07T12:04:30.000Z,9.12
2023-04-07T12:09:24.000Z,9.88
2023-04-07T12:14:18.000Z,9.89
2023-04-07T12:19:12.000Z,9.98
2023-04-07T12:24:07.000Z,9.38
2023-04-07T12:29:01.000Z,9.93
2023-04-07T12:33:55.000Z,9.56
2023-04-07T12:38:50.000Z,9.31
2023-04-07T12:43:44.000Z,9.44
2023-04-07T12:48:39.000Z,9.12
2023-04-07T12:53:32.000Z,8.94
2023-04-07T12:58:28.000Z,8.99
2023-04-07T13:03:19.000Z,8.84
2023-04-07T13:08:12.000Z,8.63
2023-04-07T13:13:06.000Z,8.89
2023-04-07T13:18:00.000Z,9.36
2023-04-07T13:22:54.000Z,9.6
2023-04-07T13:27:48.000Z,9.42
2023-04-07T13:32:42.000Z,9.65
2023-04-07T13:37:37.000Z,9.73
2023-04-07T13:42:31.000Z,10.15
2023-04-07T13:47:25.000Z,10.79
2023-04-07T13:52:20.000Z,11.73
2023-04-07T13:57:14.000Z,11.74
2023-04-07T14:02:09.000Z,11.47
2023-04-07T14:07:04.000Z,10.86
2023-04-07T14:11:58.000Z,10.8
2023-04-07T14:16:52.000Z,10.47
2023-04-07T14:21:46.000Z,10.35
2023-04-07T14:26:40.000Z,10.74
2023-04-07T14:31:34.000Z,11.81
2023-04-07T14:36:28.000Z,11.52
2023-04-07T14:41:22.000Z,10.73
2023-04-07T14:46:16.000Z,10.47
2023-04-07T14:51:10.000Z,10.3
2023-04-07T14:56:04.000Z,10.32
2023-04-07T15:00:58.000Z,10.57
2023-04-07T15:05:53.000Z,10.07
2023-04-07T15:10:47.000Z,10.21
2023-04-07T15:15:41.000Z,9.9
2023-04-07T15:20:35.000Z,10.2
2023-04-07T15:25:30.000Z,10.26
2023-04-07T15:30:24.000Z,10
2023-04-07T15:35:19.000Z,9.83
2023-04-07T15:40:13.000Z,9.34
2023-04-07T15:45:07.000Z,9.23
2023-04-07T15:50:02.000Z,9.14
2023-04-07T15:54:56.000Z,9.13
2023-04-07T15:59:50.000Z,9.01
2023-04-07T16:04:44.000Z,9.28
2023-04-07T16:09:39.000Z,9.14
2023-04-07T16:14:33.000Z,9.19
2023-04-07T16:19:28.000Z,9.4
2023-04-07T16:24:22.000Z,9.38
2023-04-07T16:29:16.000Z,9.38
2023-04-07T16:34:11.000Z,9.2
2023-04-07T16:39:04.000Z,9
2023-04-07T16:43:59.000Z,8.97
2023-04-07T16:48:56.000Z,8.92
2023-04-07T16:53:48.000Z,8.88
2023-04-07T16:58:42.000Z,8.81
2023-04-07T17:03:35.000Z,8.78
2023-04-07T17:08:29.000Z,8.61
2023-04-07T17:13:23.000Z,8.65
2023-04-07T17:18:18.000Z,8.58
2023-04-07T17:23:09.000Z,8.57
2023-04-07T17:28:03.000Z,8.88
2023-04-07T17:32:58.000Z,8.98
2023-04-07T17:37:52.000Z,8.72
2023-04-07T17:42:46.000Z,8.58
2023-04-07T17:47:40.000Z,8.46
2023-04-07T17:52:34.000Z,8.32
2023-04-07T17:57:29.000Z,8.2
2023-04-07T18:02:23.000Z,8.11
2023-04-07T18:07:17.000Z,8.16
2023-04-07T18:12:11.000Z,8.06
2023-04-07T18:17:04.000Z,7.99
2023-04-07T18:21:58.000Z,8.02
2023-04-07T18:26:52.000Z,7.97
2023-04-07T18:31:48.000Z,7.96
2023-04-07T18:36:40.000Z,7.85
2023-04-07T18:41:34.000Z,7.83
2023-04-07T18:46:29.000Z,7.78
2023-04-07T18:51:22.000Z,7.72
2023-04-07T18:56:16.000Z,7.66
2023-04-07T19:01:10.000Z,7.63
2023-04-07T19:06:03.000Z,7.61
2023-04-07T19:10:57.000Z,7.66
2023-04-07T19:15:52.000Z,7.72
2023-04-07T19:20:46.000Z,7.71
2023-04-07T19:25:39.000Z,7.73
2023-04-07T19:30:34.000Z,7.74
2023-04-07T19:35:27.000Z,7.73
2023-04-07T19:40:21.000Z,7.66
2023-04-07T19:45:15.000Z,7.66
2023-04-07T19:50:09.000Z,7.57
2023-04-07T19:55:03.000Z,7.55
2023-04-07T19:59:55.000Z,7.6
2023-04-07T20:04:49.000Z,7.71
2023-04-07T20:09:43.000Z,7.67
2023-04-07T20:14:37.000Z,7.71
2023-04-07T20:19:31.000Z,7.68
2023-04-07T20:24:25.000Z,7.64
2023-04-07T20:29:19.000Z,7.66
2023-04-07T20:34:13.000Z,7.66
2023-04-07T20:39:07.000Z,7.61
2023-04-07T20:44:01.000Z,7.54
2023-04-07T20:48:55.000Z,7.48
2023-04-07T20:53:49.000Z,7.39
2023-04-07T20:58:43.000Z,7.43
2023-04-07T21:03:37.000Z,7.38
2023-04-07T21:08:30.000Z,7.44
2023-04-07T21:13:24.000Z,7.4
2023-04-07T21:18:19.000Z,7.38
2023-04-07T21:23:12.000Z,7.33
2023-04-07T21:28:05.000Z,7.29
2023-04-07T21:32:59.000Z,7.24
2023-04-07T21:37:54.000Z,7.29
2023-04-07T21:42:48.000Z,7.3
2023-04-07T21:47:42.000Z,7.3
2023-04-07T21:52:36.000Z,7.24
2023-04-07T21:57:30.000Z,7.15
2023-04-07T22:02:23.000Z,7.14
2023-04-07T22:07:16.000Z,7.12
2023-04-07T22:12:11.000Z,7.11
2023-04-07T22:17:05.000Z,7.13
2023-04-07T22:21:59.000Z,7.12
2023-04-07T22:26:54.000Z,7.13
2023-04-07T22:31:48.000Z,7.09
2023-04-07T22:36:42.000Z,7.08
2023-04-07T22:41:34.000Z,7.16
2023-04-07T22:46:28.000Z,7.12
2023-04-07T22:51:22.000Z,7.11
2023-04-07T22:56:17.000Z,7.1
2023-04-07T23:01:11.000Z,7.16
2023-04-07T23:06:05.000Z,7.18
2023-04-07T23:10:59.000Z,7.2
2023-04-07T23:15:54.000Z,7.2
2023-04-07T23:20:48.000Z,7.24
2023-04-07T23:25:41.000Z,7.26
2023-04-07T23:30:35.000Z,7.28
2023-04-07T23:35:30.000Z,7.3
2023-04-07T23:40:24.000Z,7.31
2023-04-07T23:45:17.000Z,7.35
2023-04-07T23:50:11.000Z,7.28
2023-04-07T23:55:06.000Z,7.33
2023-04-07T23:59:54.000Z,7.31
